Time;durP1;ratioP1;P1;durP2;ratioP2;P2;SDS_P1;SDS_P2;PMS_P1;PMS_P2;Temp;Humidity;BMP_temperature;BMP_pressure;BME280_temperature;BME280_humidity;BME280_pressure;Samples;Min_cycle;Max_cycle;Signal;HPM_P1;HPM_P2
2021/04/22 00:00:21;;;;;;;17.15;1.60;;;3.60;80.40;;;;;;4953144;29;20028;-88
2021/04/22 00:02:47;;;;;;;15.55;1.65;;;3.50;80.40;;;;;;4962709;28;20034;-88
2021/04/22 00:05:18;;;;;;;16.20;2.65;;;3.40;80.40;;;;;;4953958;29;20471;-88
2021/04/22 00:07:45;;;;;;;16.90;1.65;;;3.40;80.70;;;;;;4951962;28;20027;-88
2021/04/22 00:10:16;;;;;;;14.50;1.65;;;3.40;80.90;;;;;;4947407;29;20030;-87
2021/04/22 00:12:42;;;;;;;14.30;1.23;;;3.30;81.20;;;;;;4956708;29;20070;-89
2021/04/22 00:15:18;;;;;;;15.25;1.92;;;3.20;81.30;;;;;;4943618;29;20030;-88
2021/04/22 00:17:44;;;;;;;15.07;1.40;;;3.20;81.60;;;;;;4954862;28;20023;-88
2021/04/22 00:20:12;;;;;;;25.13;3.95;;;3.20;81.70;;;;;;4957238;29;20042;-88
2021/04/22 00:22:37;;;;;;;19.00;1.67;;;3.10;81.80;;;;;;4957296;29;20163;-88
2021/04/22 00:25:03;;;;;;;19.88;1.80;;;3.10;82.00;;;;;;4940241;29;20476;-88
2021/04/22 00:27:29;;;;;;;18.60;1.85;;;3.10;82.10;;;;;;4953134;29;20027;-88
2021/04/22 00:29:54;;;;;;;24.88;1.90;;;3.10;82.20;;;;;;4956240;29;20364;-88
2021/04/22 00:32:20;;;;;;;12.35;1.77;;;3.10;82.30;;;;;;4955279;29;20046;-88
2021/04/22 00:34:46;;;;;;;24.90;4.55;;;3.10;82.40;;;;;;4956096;29;20023;-89
2021/04/22 00:37:11;;;;;;;14.90;1.48;;;3.10;82.50;;;;;;4956566;29;20035;-88
2021/04/22 00:39:38;;;;;;;18.40;1.92;;;3.10;82.60;;;;;;4955821;29;20051;-88
2021/04/22 00:42:05;;;;;;;15.90;1.98;;;3.00;82.60;;;;;;4954816;29;20073;-88
2021/04/22 00:44:31;;;;;;;15.77;1.30;;;3.00;82.90;;;;;;4955991;28;20027;-87
2021/04/22 00:46:57;;;;;;;15.52;1.38;;;3.00;83.10;;;;;;4949720;29;20484;-88
2021/04/22 00:49:24;;;;;;;23.25;1.83;;;3.00;83.10;;;;;;4950892;29;20078;-87
2021/04/22 00:51:50;;;;;;;19.42;2.00;;;3.00;83.20;;;;;;4956223;29;20122;-88
2021/04/22 00:54:16;;;;;;;22.88;3.28;;;3.00;83.90;;;;;;4955153;29;20117;-87
2021/04/22 00:56:41;;;;;;;16.90;2.10;;;3.00;83.30;;;;;;4956379;29;20027;-88
2021/04/22 00:59:07;;;;;;;13.68;1.77;;;2.90;83.40;;;;;;4955880;29;20042;-88
2021/04/22 01:01:32;;;;;;;18.67;1.85;;;2.90;83.40;;;;;;4956283;29;20050;-88
2021/04/22 01:03:58;;;;;;;19.55;1.45;;;2.80;83.60;;;;;;4953766;29;20178;-88
2021/04/22 01:06:23;;;;;;;14.30;1.58;;;2.80;83.80;;;;;;4955289;29;20055;-88
2021/04/22 01:08:49;;;;;;;18.52;2.28;;;2.80;83.80;;;;;;4947309;29;20023;-88
2021/04/22 01:11:15;;;;;;;13.48;1.67;;;2.80;83.90;;;;;;4956278;29;20042;-88
2021/04/22 01:13:41;;;;;;;16.73;2.00;;;2.80;83.90;;;;;;4948057;28;20046;-88
2021/04/22 01:16:06;;;;;;;13.75;1.80;;;2.80;84.00;;;;;;4951498;29;20475;-88
2021/04/22 01:18:32;;;;;;;9.93;1.45;;;2.80;83.90;;;;;;4955213;28;20063;-88
2021/04/22 01:21:00;;;;;;;16.98;1.67;;;2.80;84.00;;;;;;4954953;29;20027;-89
2021/04/22 01:23:25;;;;;;;27.08;2.63;;;2.80;84.00;;;;;;4955917;29;20070;-88
2021/04/22 01:25:52;;;;;;;20.08;2.20;;;2.70;84.10;;;;;;4952023;29;20416;-89
2021/04/22 01:28:20;;;;;;;15.90;2.17;;;2.70;84.50;;;;;;4955677;29;20031;-89
2021/04/22 01:30:52;;;;;;;21.42;2.42;;;2.70;84.50;;;;;;4954816;28;20039;-89
2021/04/22 01:33:21;;;;;;;18.17;2.45;;;2.60;84.70;;;;;;4954607;29;20034;-89
2021/04/22 01:35:50;;;;;;;16.17;2.33;;;2.50;84.90;;;;;;4952527;29;20039;-88
2021/04/22 01:38:16;;;;;;;18.90;2.15;;;2.50;85.10;;;;;;4953677;29;20024;-88
2021/04/22 01:40:42;;;;;;;18.55;2.28;;;2.40;85.30;;;;;;4955216;29;20130;-89
2021/04/22 01:43:09;;;;;;;10.15;2.65;;;2.40;86.20;;;;;;4956440;29;20127;-88
2021/04/22 01:45:36;;;;;;;13.38;1.83;;;2.30;85.70;;;;;;4955670;29;20030;-89
2021/04/22 01:48:02;;;;;;;14.27;2.05;;;2.30;85.70;;;;;;4955001;29;20490;-89
2021/04/22 01:50:31;;;;;;;12.52;2.25;;;2.30;85.90;;;;;;4950598;29;20032;-88
2021/04/22 01:52:57;;;;;;;23.40;2.33;;;2.30;86.00;;;;;;4954585;29;20110;-88
2021/04/22 01:55:31;;;;;;;9.50;1.55;;;2.30;86.00;;;;;;4955003;29;20143;-88
2021/04/22 01:57:57;;;;;;;13.68;2.33;;;2.30;86.10;;;;;;4954473;29;20035;-89
2021/04/22 02:00:30;;;;;;;18.40;2.60;;;2.30;86.10;;;;;;4953807;29;20035;-88
2021/04/22 02:02:56;;;;;;;16.15;2.92;;;2.30;86.30;;;;;;4956717;29;20030;-89
2021/04/22 02:05:22;;;;;;;20.55;2.83;;;2.30;86.40;;;;;;4955510;29;20023;-88
2021/04/22 02:07:50;;;;;;;20.63;2.33;;;2.30;86.10;;;;;;4954481;28;20027;-88
2021/04/22 02:10:16;;;;;;;13.85;3.33;;;2.40;86.90;;;;;;4954677;29;20042;-89
2021/04/22 02:12:42;;;;;;;18.85;2.92;;;2.40;86.20;;;;;;4953306;29;20086;-89
2021/04/22 02:15:12;;;;;;;11.68;2.78;;;2.40;86.10;;;;;;4954478;29;20027;-88
2021/04/22 02:17:37;;;;;;;19.75;3.83;;;2.40;86.00;;;;;;4967847;28;20114;-88
2021/04/22 02:20:09;;;;;;;19.13;2.45;;;2.40;86.30;;;;;;4955405;29;20051;-88
2021/04/22 02:22:35;;;;;;;13.63;3.50;;;2.40;86.30;;;;;;4954053;29;20027;-89
2021/04/22 02:25:01;;;;;;;11.23;1.85;;;2.40;86.20;;;;;;4954212;29;20131;-88
2021/04/22 02:27:27;;;;;;;16.38;2.00;;;2.40;86.30;;;;;;4952858;29;20027;-89
2021/04/22 02:29:52;;;;;;;15.10;3.17;;;2.40;86.50;;;;;;4953196;28;20527;-89
2021/04/22 02:32:18;;;;;;;19.20;2.78;;;2.40;86.60;;;;;;4953542;29;20035;-88
2021/04/22 02:34:43;;;;;;;26.67;3.88;;;2.40;86.70;;;;;;4941636;29;20118;-89
2021/04/22 02:37:09;;;;;;;20.20;3.40;;;2.50;86.60;;;;;;4952707;28;20019;-89
2021/04/22 02:39:34;;;;;;;22.00;3.03;;;2.50;86.50;;;;;;4973296;28;20146;-89
2021/04/22 02:42:00;;;;;;;14.05;2.20;;;2.50;86.50;;;;;;4954350;29;20039;-89
2021/04/22 02:44:25;;;;;;;19.20;3.58;;;2.50;86.60;;;;;;4954355;29;20027;-89
2021/04/22 02:46:51;;;;;;;17.50;3.15;;;2.50;87.40;;;;;;4953265;29;20551;-88
2021/04/22 02:49:16;;;;;;;17.30;2.55;;;2.50;86.80;;;;;;4954910;29;20471;-88
2021/04/22 02:51:42;;;;;;;17.00;3.22;;;2.50;86.70;;;;;;4954235;29;20042;-88
2021/04/22 02:54:07;;;;;;;15.90;3.08;;;2.50;86.60;;;;;;4953734;29;20479;-89
2021/04/22 02:56:33;;;;;;;17.83;2.72;;;2.50;86.80;;;;;;4949507;29;20480;-90
2021/04/22 02:58:59;;;;;;;20.08;3.65;;;2.50;86.70;;;;;;4954539;29;20027;-88
2021/04/22 03:01:25;;;;;;;28.13;4.82;;;2.60;86.90;;;;;;4953561;29;20055;-89
2021/04/22 03:03:50;;;;;;;12.70;3.90;;;2.50;86.90;;;;;;4953639;28;20051;-89
2021/04/22 03:06:16;;;;;;;18.83;4.18;;;2.50;86.80;;;;;;4951228;29;20111;-88
2021/04/22 03:08:41;;;;;;;21.40;4.25;;;2.50;86.90;;;;;;4953726;29;20078;-88
2021/04/22 03:11:07;;;;;;;23.40;4.43;;;2.40;87.10;;;;;;4953896;29;20402;-89
2021/04/22 03:13:32;;;;;;;16.35;3.13;;;2.40;87.20;;;;;;4952807;29;20475;-89
2021/04/22 03:15:58;;;;;;;13.23;3.92;;;2.40;87.40;;;;;;4953239;29;20031;-89
2021/04/22 03:18:23;;;;;;;22.80;3.08;;;2.40;87.50;;;;;;4954843;29;20032;-89
2021/04/22 03:20:49;;;;;;;18.75;3.47;;;2.30;87.60;;;;;;4953225;29;20028;-89
2021/04/22 03:23:14;;;;;;;22.60;4.30;;;2.20;88.20;;;;;;4954253;29;20392;-90
2021/04/22 03:25:40;;;;;;;20.38;3.85;;;2.10;87.80;;;;;;4953342;29;20031;-89
2021/04/22 03:28:06;;;;;;;20.05;4.18;;;2.00;88.00;;;;;;4948247;29;20042;-88
2021/04/22 03:30:33;;;;;;;18.08;4.35;;;2.00;88.80;;;;;;4952896;29;20024;-89
2021/04/22 03:33:00;;;;;;;25.08;4.45;;;1.90;88.30;;;;;;4949107;29;20082;-89
2021/04/22 03:35:25;;;;;;;22.88;4.30;;;1.90;88.60;;;;;;4948412;29;20029;-89
2021/04/22 03:37:51;;;;;;;13.52;3.05;;;1.80;88.80;;;;;;4955232;29;20511;-89
2021/04/22 03:40:20;;;;;;;13.93;3.30;;;1.70;88.90;;;;;;4955621;29;20531;-89
2021/04/22 03:42:46;;;;;;;22.27;3.53;;;1.70;89.00;;;;;;4954202;28;20031;-89
2021/04/22 03:45:13;;;;;;;21.60;3.88;;;1.60;89.00;;;;;;4957102;29;20390;-89
2021/04/22 03:47:39;;;;;;;19.83;3.92;;;1.60;89.20;;;;;;4953350;28;20031;-89
2021/04/22 03:50:06;;;;;;;15.70;3.72;;;1.50;89.40;;;;;;4957034;28;20088;-89
2021/04/22 03:52:32;;;;;;;21.00;3.67;;;1.50;89.60;;;;;;4953778;29;20130;-88
2021/04/22 03:54:57;;;;;;;22.98;4.63;;;1.50;89.60;;;;;;4958626;28;20106;-89
2021/04/22 03:57:23;;;;;;;17.65;5.18;;;1.50;89.70;;;;;;4957399;28;20047;-88
2021/04/22 03:59:48;;;;;;;16.20;3.92;;;1.40;89.70;;;;;;4959090;29;20030;-89
2021/04/22 04:02:14;;;;;;;16.00;3.42;;;1.40;89.80;;;;;;4953967;29;20035;-88
2021/04/22 04:04:39;;;;;;;17.17;3.67;;;1.40;89.90;;;;;;4944546;28;20357;-88
2021/04/22 04:07:05;;;;;;;15.88;3.92;;;1.40;90.00;;;;;;4952607;29;20369;-89
2021/04/22 04:09:31;;;;;;;16.98;4.13;;;1.30;90.00;;;;;;4959014;29;20042;-88
2021/04/22 04:11:56;;;;;;;20.55;4.15;;;1.30;90.10;;;;;;4956920;29;20031;-89
2021/04/22 04:14:22;;;;;;;20.23;4.07;;;1.20;90.20;;;;;;4958962;29;20038;-89
2021/04/22 04:16:48;;;;;;;20.35;4.55;;;1.20;90.20;;;;;;4955148;29;20046;-90
2021/04/22 04:19:13;;;;;;;24.27;4.20;;;1.20;90.40;;;;;;4955593;29;20023;-89
2021/04/22 04:21:39;;;;;;;14.68;3.70;;;1.20;90.40;;;;;;4956761;29;20484;-88
2021/04/22 04:24:05;;;;;;;15.18;3.97;;;1.20;90.40;;;;;;4956940;29;20519;-88
2021/04/22 04:26:30;;;;;;;18.05;3.25;;;1.30;90.50;;;;;;4956614;29;20034;-88
2021/04/22 04:28:56;;;;;;;17.50;3.45;;;1.30;90.50;;;;;;4953379;29;20033;-89
2021/04/22 04:31:22;;;;;;;13.32;3.72;;;1.40;90.60;;;;;;4949046;29;20045;-90
2021/04/22 04:33:49;;;;;;;14.63;3.42;;;1.40;90.40;;;;;;4952631;28;20028;-89
2021/04/22 04:36:15;;;;;;;15.02;4.25;;;1.50;90.40;;;;;;4953010;28;20039;-88
2021/04/22 04:38:40;;;;;;;22.55;3.58;;;1.50;90.60;;;;;;4948882;29;20127;-90
2021/04/22 04:41:06;;;;;;;11.27;3.42;;;1.60;90.50;;;;;;4954537;29;20051;-88
2021/04/22 04:43:32;;;;;;;15.23;3.58;;;1.60;90.50;;;;;;4956973;29;20027;-90
2021/04/22 04:45:57;;;;;;;18.85;4.43;;;1.60;90.50;;;;;;4957587;29;21631;-89
2021/04/22 04:48:23;;;;;;;10.57;3.05;;;1.60;90.50;;;;;;4957625;29;20027;-90
2021/04/22 04:50:48;;;;;;;16.20;3.25;;;1.60;90.60;;;;;;4954852;28;20031;-89
2021/04/22 04:53:14;;;;;;;16.40;3.13;;;1.70;90.60;;;;;;4956615;28;20057;-88
2021/04/22 04:55:39;;;;;;;21.50;2.97;;;1.70;90.60;;;;;;4956587;29;20034;-89
2021/04/22 04:58:05;;;;;;;18.15;4.15;;;1.80;90.70;;;;;;4953473;28;20039;-89
2021/04/22 05:00:30;;;;;;;15.63;2.90;;;1.90;90.50;;;;;;4948814;29;20039;-88
2021/04/22 05:02:56;;;;;;;12.40;4.15;;;1.90;90.40;;;;;;4954027;28;20031;-88
2021/04/22 05:05:22;;;;;;;13.82;3.38;;;1.90;90.40;;;;;;4955135;29;20038;-89
2021/04/22 05:07:47;;;;;;;24.65;5.40;;;2.00;90.50;;;;;;4958344;29;20027;-88
2021/04/22 05:10:13;;;;;;;18.83;4.13;;;2.10;90.40;;;;;;4957686;28;20027;-88
2021/04/22 05:12:39;;;;;;;17.70;4.32;;;2.10;90.40;;;;;;4951608;28;20035;-88
2021/04/22 05:15:06;;;;;;;16.02;3.25;;;2.20;90.40;;;;;;4955486;29;20090;-88
2021/04/22 05:17:33;;;;;;;17.33;3.75;;;2.30;90.30;;;;;;4950982;29;20034;-89
2021/04/22 05:19:59;;;;;;;17.38;3.97;;;2.40;90.30;;;;;;4947504;28;20035;-88
2021/04/22 05:22:24;;;;;;;22.90;4.88;;;2.50;90.20;;;;;;4951553;28;20027;-88
2021/04/22 05:24:50;;;;;;;17.48;5.15;;;2.50;90.10;;;;;;4939991;29;20097;-88
2021/04/22 05:27:15;;;;;;;17.90;4.70;;;2.60;90.10;;;;;;4949731;29;20463;-88
2021/04/22 05:29:41;;;;;;;17.15;4.28;;;2.70;90.10;;;;;;4951813;29;20023;-88
2021/04/22 05:32:07;;;;;;;18.15;4.22;;;2.70;90.00;;;;;;4953492;29;20043;-89
2021/04/22 05:34:33;;;;;;;26.27;4.15;;;2.70;90.00;;;;;;4948423;29;20026;-89
2021/04/22 05:36:59;;;;;;;25.48;4.75;;;2.70;89.90;;;;;;4953146;28;20064;-88
2021/04/22 05:39:24;;;;;;;30.25;4.82;;;2.70;89.80;;;;;;4949612;28;20395;-88
2021/04/22 05:41:51;;;;;;;22.23;4.53;;;2.70;89.90;;;;;;4957626;28;20054;-88
2021/04/22 05:44:16;;;;;;;14.48;4.07;;;2.80;90.00;;;;;;4953568;29;20023;-89
2021/04/22 05:46:43;;;;;;;18.05;4.43;;;2.80;90.00;;;;;;4944206;29;20034;-88
2021/04/22 05:49:09;;;;;;;18.13;4.60;;;2.90;90.00;;;;;;4949262;29;20027;-89
2021/04/22 05:51:37;;;;;;;15.77;4.57;;;3.00;90.00;;;;;;4949083;29;20046;-89
2021/04/22 05:54:03;;;;;;;16.02;4.57;;;3.10;89.90;;;;;;4952054;29;20026;-89
2021/04/22 05:56:29;;;;;;;18.67;5.63;;;3.10;89.80;;;;;;4944930;28;20387;-88
2021/04/22 05:58:54;;;;;;;20.27;5.28;;;3.20;89.90;;;;;;4951958;28;20125;-88
2021/04/22 06:01:20;;;;;;;26.05;5.90;;;3.40;89.80;;;;;;4946448;28;20050;-89
2021/04/22 06:03:46;;;;;;;23.17;5.88;;;3.40;89.50;;;;;;4952668;29;20115;-89
2021/04/22 06:06:11;;;;;;;20.50;5.32;;;3.60;89.60;;;;;;4949010;28;20043;-89
2021/04/22 06:08:37;;;;;;;18.48;4.78;;;3.80;89.30;;;;;;4949332;29;20050;-88
2021/04/22 06:11:03;;;;;;;21.88;5.32;;;3.90;89.00;;;;;;4948189;29;20408;-88
2021/04/22 06:13:28;;;;;;;23.80;5.47;;;4.10;88.60;;;;;;4947491;29;20034;-89
2021/04/22 06:15:54;;;;;;;18.48;4.20;;;4.10;88.40;;;;;;4948139;28;20444;-88
2021/04/22 06:18:19;;;;;;;19.55;4.63;;;4.20;88.30;;;;;;4943264;28;20062;-88
2021/04/22 06:20:45;;;;;;;17.98;4.72;;;4.30;88.20;;;;;;4944671;28;20067;-89
2021/04/22 06:23:10;;;;;;;19.27;5.18;;;4.40;88.40;;;;;;4942896;28;20037;-88
2021/04/22 06:25:36;;;;;;;17.67;5.25;;;4.50;88.40;;;;;;4947842;28;20039;-88
2021/04/22 06:28:02;;;;;;;19.95;6.10;;;4.70;88.20;;;;;;4948356;29;20027;-89
2021/04/22 06:30:28;;;;;;;20.75;4.55;;;4.90;88.00;;;;;;4943632;29;20029;-88
2021/04/22 06:32:54;;;;;;;22.38;4.88;;;5.00;87.80;;;;;;4943616;29;20041;-88
2021/04/22 06:35:20;;;;;;;14.85;4.50;;;5.20;87.80;;;;;;4947164;29;20036;-89
2021/04/22 06:37:46;;;;;;;14.13;4.32;;;5.30;87.50;;;;;;4947862;29;20038;-89
2021/04/22 06:40:15;;;;;;;15.73;4.88;;;5.50;87.10;;;;;;4943734;29;20054;-88
2021/04/22 06:42:41;;;;;;;17.30;5.07;;;5.60;86.60;;;;;;4947614;29;20059;-88
2021/04/22 06:45:09;;;;;;;18.40;3.80;;;5.70;86.30;;;;;;4963619;28;20023;-89
2021/04/22 06:47:36;;;;;;;22.55;4.30;;;5.70;85.60;;;;;;4949268;29;20122;-88
2021/04/22 06:50:07;;;;;;;16.50;3.95;;;5.80;85.50;;;;;;4947800;29;20031;-89
2021/04/22 06:52:34;;;;;;;20.85;3.50;;;5.90;85.40;;;;;;4950627;28;20047;-88
2021/04/22 06:55:00;;;;;;;19.02;4.95;;;6.00;85.40;;;;;;4947820;29;20031;-88
2021/04/22 06:57:25;;;;;;;17.08;3.42;;;6.10;85.40;;;;;;4948352;29;20059;-88
2021/04/22 06:59:51;;;;;;;15.20;3.30;;;6.30;84.10;;;;;;4947646;29;20062;-89
2021/04/22 07:02:16;;;;;;;18.35;3.10;;;6.40;83.20;;;;;;4950460;29;20051;-87
2021/04/22 07:04:43;;;;;;;18.60;3.25;;;6.50;82.70;;;;;;4947624;28;20454;-88
2021/04/22 07:07:08;;;;;;;21.35;4.10;;;6.70;82.10;;;;;;4948529;28;20074;-88
2021/04/22 07:09:35;;;;;;;13.38;2.55;;;6.80;81.60;;;;;;4946767;29;20027;-88
2021/04/22 07:12:01;;;;;;;12.68;2.40;;;7.00;79.50;;;;;;4946980;29;20035;-88
2021/04/22 07:14:27;;;;;;;17.13;2.38;;;7.00;78.80;;;;;;4946951;29;20028;-87
2021/04/22 07:16:52;;;;;;;8.38;1.73;;;7.00;78.90;;;;;;4946546;28;20042;-88
2021/04/22 07:19:18;;;;;;;18.75;2.33;;;7.10;78.90;;;;;;4949832;29;21261;-88
2021/04/22 07:21:43;;;;;;;12.10;1.70;;;7.00;78.40;;;;;;4950938;29;20034;-88
2021/04/22 07:24:09;;;;;;;13.18;2.17;;;7.00;78.40;;;;;;4949811;29;20031;-88
2021/04/22 07:26:35;;;;;;;10.68;2.45;;;7.00;78.50;;;;;;4948716;28;20053;-89
2021/04/22 07:29:01;;;;;;;12.15;1.98;;;7.10;78.30;;;;;;4948573;29;20071;-88
2021/04/22 07:31:27;;;;;;;15.05;1.77;;;7.20;77.30;;;;;;4944734;28;20036;-88
2021/04/22 07:33:53;;;;;;;16.13;1.80;;;7.20;76.90;;;;;;4945348;28;20035;-88
2021/04/22 07:36:21;;;;;;;18.40;2.40;;;7.40;76.50;;;;;;4945345;29;20032;-88
2021/04/22 07:38:46;;;;;;;13.93;1.88;;;7.50;76.10;;;;;;4947416;29;20027;-88
2021/04/22 07:41:12;;;;;;;13.05;2.20;;;7.50;76.00;;;;;;4948465;29;20105;-87
2021/04/22 07:43:38;;;;;;;13.93;2.20;;;7.60;74.60;;;;;;4944636;29;20038;-89
2021/04/22 07:46:03;;;;;;;16.95;2.17;;;7.80;74.40;;;;;;4945564;28;20070;-88
2021/04/22 07:48:30;;;;;;;13.60;2.30;;;7.90;73.80;;;;;;4946354;28;20059;-88
2021/04/22 07:50:56;;;;;;;14.60;1.45;;;8.10;73.00;;;;;;4945293;29;20030;-87
2021/04/22 07:53:22;;;;;;;10.55;1.45;;;8.20;72.50;;;;;;4952509;29;20031;-87
2021/04/22 07:55:47;;;;;;;10.00;1.00;;;8.30;71.90;;;;;;4953541;29;20024;-87
2021/04/22 07:58:14;;;;;;;10.70;0.82;;;8.20;71.00;;;;;;4954487;28;20039;-88
2021/04/22 08:00:41;;;;;;;9.32;1.00;;;8.20;70.70;;;;;;4950375;28;20027;-89
2021/04/22 08:03:07;;;;;;;16.27;1.95;;;8.30;70.30;;;;;;4950895;29;20530;-89
2021/04/22 08:05:37;;;;;;;10.88;0.82;;;8.30;69.90;;;;;;4951344;29;20031;-88
2021/04/22 08:08:04;;;;;;;6.97;1.05;;;8.50;69.60;;;;;;4948789;28;20035;-88
2021/04/22 08:10:32;;;;;;;10.05;1.88;;;8.70;69.00;;;;;;4950316;29;20023;-88
2021/04/22 08:12:59;;;;;;;11.38;0.85;;;8.90;69.20;;;;;;4949416;28;20036;-87
2021/04/22 08:15:25;;;;;;;23.92;1.55;;;9.00;66.90;;;;;;4949000;28;20397;-88
2021/04/22 08:17:50;;;;;;;9.35;1.67;;;9.10;66.00;;;;;;4950775;28;20047;-88
2021/04/22 08:20:20;;;;;;;6.88;1.05;;;9.10;66.10;;;;;;4948225;29;20027;-88
2021/04/22 08:22:46;;;;;;;11.80;1.20;;;9.20;66.10;;;;;;4945302;28;20035;-88
2021/04/22 08:25:19;;;;;;;11.93;1.42;;;9.30;65.80;;;;;;4949261;28;20028;-88
2021/04/22 08:27:49;;;;;;;11.27;0.80;;;9.60;65.80;;;;;;4949957;28;20051;-88
2021/04/22 08:30:24;;;;;;;10.43;1.33;;;9.70;64.20;;;;;;4944869;28;20076;-88
2021/04/22 08:32:50;;;;;;;9.57;0.90;;;9.80;63.70;;;;;;4953273;28;20039;-89
2021/04/22 08:35:16;;;;;;;11.38;1.83;;;9.90;63.20;;;;;;4945040;29;20044;-88
2021/04/22 08:37:42;;;;;;;14.30;1.63;;;10.00;62.50;;;;;;4948690;28;20054;-87
2021/04/22 08:40:09;;;;;;;13.57;1.52;;;9.90;61.80;;;;;;4954806;28;20123;-88
2021/04/22 08:42:35;;;;;;;11.15;1.38;;;9.80;61.50;;;;;;4953386;28;20067;-89
2021/04/22 08:45:03;;;;;;;6.80;1.20;;;9.80;62.70;;;;;;4954586;29;20031;-89
2021/04/22 08:47:29;;;;;;;9.80;1.00;;;9.90;62.40;;;;;;4948822;28;20023;-88
2021/04/22 08:49:56;;;;;;;12.88;1.55;;;10.00;62.70;;;;;;4966721;28;20027;-88
2021/04/22 08:52:22;;;;;;;11.52;1.98;;;10.00;62.10;;;;;;4947668;28;20054;-88
2021/04/22 08:54:47;;;;;;;5.50;1.17;;;10.00;62.60;;;;;;4944396;28;20027;-88
2021/04/22 08:57:13;;;;;;;9.15;1.17;;;10.00;62.70;;;;;;4942984;28;20040;-89
2021/04/22 08:59:39;;;;;;;9.60;1.40;;;10.10;62.40;;;;;;4944826;28;20153;-87
2021/04/22 09:02:05;;;;;;;8.88;1.60;;;10.30;61.60;;;;;;4947009;29;20114;-88
2021/04/22 09:04:32;;;;;;;9.98;1.30;;;10.40;61.30;;;;;;4949087;29;20035;-89
2021/04/22 09:06:58;;;;;;;11.15;0.93;;;10.50;61.00;;;;;;4948791;28;20031;-88
2021/04/22 09:09:23;;;;;;;10.55;1.00;;;10.70;60.50;;;;;;4950394;29;20499;-88
2021/04/22 09:11:49;;;;;;;9.48;1.60;;;10.70;59.60;;;;;;4947693;29;20118;-89
2021/04/22 09:14:18;;;;;;;11.65;1.85;;;10.80;59.80;;;;;;4952322;29;20042;-89
2021/04/22 09:16:44;;;;;;;6.10;0.98;;;10.90;57.80;;;;;;4949180;29;20631;-88
2021/04/22 09:19:12;;;;;;;8.73;1.38;;;10.90;58.60;;;;;;4943250;29;20051;-89
2021/04/22 09:21:45;;;;;;;9.15;1.33;;;11.00;58.10;;;;;;4944982;28;20038;-89
2021/04/22 09:24:16;;;;;;;8.98;1.08;;;11.00;57.40;;;;;;4945961;28;20109;-88
2021/04/22 09:26:51;;;;;;;8.02;1.33;;;10.90;56.50;;;;;;4961010;28;20043;-87
2021/04/22 09:29:54;;;;;;;11.10;1.00;;;10.80;56.50;;;;;;4943237;29;20110;-88
2021/04/22 09:32:31;;;;;;;10.60;1.10;;;10.80;56.90;;;;;;4948351;28;20134;-89
2021/04/22 09:35:09;;;;;;;12.00;1.25;;;10.80;57.50;;;;;;4952551;29;20542;-88
2021/04/22 09:37:54;;;;;;;18.05;2.90;;;10.90;56.60;;;;;;4957056;29;20035;-88
2021/04/22 09:40:24;;;;;;;9.50;1.10;;;11.10;56.40;;;;;;4950104;28;20050;-88
2021/04/22 09:42:52;;;;;;;6.90;1.10;;;11.20;55.80;;;;;;4958493;29;20407;-89
2021/04/22 09:45:23;;;;;;;9.40;1.45;;;11.20;54.90;;;;;;4956528;28;20542;-88
2021/04/22 09:47:49;;;;;;;8.10;1.38;;;11.10;55.50;;;;;;4958714;29;20023;-88
2021/04/22 09:50:22;;;;;;;7.50;1.38;;;11.00;55.70;;;;;;4950795;29;20145;-88
2021/04/22 09:52:58;;;;;;;14.25;1.50;;;10.70;56.30;;;;;;4939233;29;20488;-88
2021/04/22 09:55:29;;;;;;;10.40;1.15;;;10.50;56.30;;;;;;4949849;29;20126;-88
2021/04/22 09:57:56;;;;;;;14.05;2.75;;;10.50;56.70;;;;;;4957154;29;20510;-87
2021/04/22 10:00:28;;;;;;;10.30;0.98;;;10.50;56.90;;;;;;4950211;29;20031;-88
2021/04/22 10:02:58;;;;;;;;;;;10.60;57.00;;;;;;4952010;28;20011;-88
2021/04/22 10:05:35;;;;;;;7.13;1.00;;;10.70;57.40;;;;;;4953457;28;19913;-88
2021/04/22 10:08:12;;;;;;;6.85;1.40;;;10.70;57.20;;;;;;4952089;28;20047;-88
2021/04/22 10:10:41;;;;;;;9.15;1.65;;;10.70;57.10;;;;;;4955609;29;20059;-88
2021/04/22 10:13:09;;;;;;;6.78;1.27;;;10.50;56.70;;;;;;4957501;29;20035;-88
2021/04/22 10:15:35;;;;;;;8.18;1.40;;;10.50;58.50;;;;;;4953159;28;20046;-88
2021/04/22 10:18:09;;;;;;;10.45;2.08;;;10.50;58.10;;;;;;4952461;28;20075;-88
2021/04/22 10:20:37;;;;;;;9.68;1.02;;;10.60;57.50;;;;;;4967144;28;20055;-88
2021/04/22 10:23:08;;;;;;;9.88;1.10;;;10.70;57.20;;;;;;4976275;28;20478;-87
2021/04/22 10:25:35;;;;;;;11.50;0.73;;;10.80;56.90;;;;;;4977375;28;20109;-88
2021/04/22 10:28:15;;;;;;;5.63;1.25;;;10.80;56.20;;;;;;4971448;28;20514;-88
2021/04/22 10:30:43;;;;;;;8.32;1.05;;;10.80;56.80;;;;;;4956668;28;20531;-88
2021/04/22 10:33:10;;;;;;;8.40;1.20;;;11.00;56.80;;;;;;4951113;29;20043;-88
2021/04/22 10:35:38;;;;;;;12.63;1.27;;;11.20;57.90;;;;;;4951666;29;20054;-88
2021/04/22 10:38:04;;;;;;;8.93;1.13;;;11.40;57.30;;;;;;4941445;29;20024;-89
2021/04/22 10:40:33;;;;;;;10.25;1.73;;;11.40;57.20;;;;;;4953061;28;20419;-88
2021/04/22 10:43:03;;;;;;;5.25;1.00;;;11.40;56.30;;;;;;4955899;29;20031;-88
2021/04/22 10:45:30;;;;;;;11.32;1.70;;;11.30;56.50;;;;;;4954068;29;20038;-88
2021/04/22 10:47:55;;;;;;;9.75;1.25;;;11.30;57.60;;;;;;4954149;29;20034;-88
2021/04/22 10:50:43;;;;;;;11.35;2.38;;;11.30;57.60;;;;;;4954972;29;20031;-88
2021/04/22 10:53:12;;;;;;;8.65;1.35;;;11.30;57.00;;;;;;4936370;29;20500;-88
2021/04/22 10:55:41;;;;;;;13.30;1.38;;;11.30;56.70;;;;;;4953290;29;20026;-88
2021/04/22 10:58:21;;;;;;;7.28;1.33;;;11.30;56.30;;;;;;4955421;29;20043;-87
2021/04/22 11:01:00;;;;;;;4.88;0.95;;;11.20;56.30;;;;;;4954266;29;20027;-87
2021/04/22 11:03:44;;;;;;;12.90;1.40;;;11.20;55.90;;;;;;4951219;29;20042;-88
2021/04/22 11:06:13;;;;;;;6.97;1.45;;;11.20;56.30;;;;;;4962380;28;20023;-87
2021/04/22 11:08:50;;;;;;;7.57;1.40;;;11.20;56.60;;;;;;4953947;29;20723;-88
2021/04/22 11:11:29;;;;;;;7.97;1.40;;;11.30;56.00;;;;;;4938761;29;20058;-88
2021/04/22 11:14:07;;;;;;;9.82;1.15;;;11.30;55.00;;;;;;4952745;29;20062;-89
2021/04/22 11:16:35;;;;;;;8.07;1.73;;;11.30;55.60;;;;;;4958195;28;20448;-89
2021/04/22 11:19:12;;;;;;;9.48;1.38;;;11.40;55.90;;;;;;4951142;28;20060;-88
2021/04/22 11:21:54;;;;;;;10.10;1.45;;;11.40;54.40;;;;;;4952841;28;20051;-89
2021/04/22 11:24:27;;;;;;;8.18;1.58;;;11.30;55.10;;;;;;4953684;28;20038;-88
2021/04/22 11:27:07;;;;;;;5.82;1.27;;;11.30;56.30;;;;;;4955566;29;20062;-89
2021/04/22 11:29:48;;;;;;;10.93;1.70;;;11.40;56.10;;;;;;4953978;29;20031;-88
2021/04/22 11:32:34;;;;;;;13.32;1.20;;;11.50;56.20;;;;;;4949050;28;20031;-89
2021/04/22 11:35:08;;;;;;;9.45;1.50;;;11.60;55.20;;;;;;4969268;28;20047;-88
2021/04/22 11:37:38;;;;;;;10.07;1.77;;;11.50;54.70;;;;;;4947232;28;20012;-89
2021/04/22 11:40:36;;;;;;;7.95;1.17;;;11.60;55.00;;;;;;4958130;28;20050;-87
2021/04/22 11:43:03;;;;;;;7.85;1.55;;;11.60;54.70;;;;;;4922070;29;20063;-89
2021/04/22 11:45:32;;;;;;;9.93;1.20;;;11.50;55.00;;;;;;4954027;28;20452;-89
2021/04/22 11:48:06;;;;;;;5.35;1.58;;;11.60;55.60;;;;;;4966304;28;20027;-87
2021/04/22 11:50:56;;;;;;;6.20;1.30;;;11.70;56.10;;;;;;4953164;29;20114;-89
2021/04/22 11:53:32;;;;;;;6.30;1.60;;;11.90;54.30;;;;;;4965940;28;20044;-86
2021/04/22 11:55:57;;;;;;;5.90;1.60;;;11.90;54.20;;;;;;4942565;28;21629;-88
2021/04/22 11:58:25;;;;;;;9.43;1.17;;;11.90;54.80;;;;;;4954745;29;20037;-89
2021/04/22 12:00:54;;;;;;;9.57;1.92;;;11.90;55.00;;;;;;4954080;29;20439;-89
2021/04/22 12:03:32;;;;;;;6.82;1.25;;;11.90;54.70;;;;;;4958255;28;20035;-88
2021/04/22 12:06:02;;;;;;;13.70;1.70;;;11.90;55.40;;;;;;4947642;29;20487;-88
2021/04/22 12:08:31;;;;;;;10.82;1.02;;;12.00;54.80;;;;;;4965426;28;20023;-88
2021/04/22 12:10:57;;;;;;;8.10;1.63;;;12.00;54.40;;;;;;4959545;29;20027;-88
2021/04/22 12:13:23;;;;;;;8.07;1.50;;;11.90;54.90;;;;;;4955166;29;20035;-88
2021/04/22 12:15:52;;;;;;;10.80;1.98;;;12.00;54.80;;;;;;4952029;29;20034;-87
2021/04/22 12:18:31;;;;;;;11.82;2.25;;;12.10;53.90;;;;;;4956192;29;20031;-88
2021/04/22 12:21:12;;;;;;;7.53;1.13;;;12.00;53.80;;;;;;4954757;28;20498;-88
2021/04/22 12:23:40;;;;;;;5.65;1.33;;;12.10;54.80;;;;;;4953282;29;20031;-88
2021/04/22 12:26:25;;;;;;;7.90;1.05;;;12.20;54.00;;;;;;4953645;29;20051;-88
2021/04/22 12:29:06;;;;;;;6.20;1.85;;;12.30;53.50;;;;;;4949728;29;20043;-88
2021/04/22 12:31:33;;;;;;;9.02;1.35;;;12.30;53.20;;;;;;4952306;29;20039;-87
2021/04/22 12:34:12;;;;;;;8.80;1.48;;;12.30;53.70;;;;;;4954468;29;20110;-88
2021/04/22 12:36:59;;;;;;;6.45;1.00;;;12.40;53.20;;;;;;4955193;29;20027;-88
2021/04/22 12:39:36;;;;;;;10.80;1.60;;;12.50;53.70;;;;;;4950128;29;20035;-88
2021/04/22 12:42:08;;;;;;;10.73;1.50;;;12.50;53.20;;;;;;4954989;29;20369;-88
2021/04/22 12:44:35;;;;;;;8.50;1.23;;;12.60;53.80;;;;;;4948349;28;20383;-86
2021/04/22 12:47:07;;;;;;;5.25;1.15;;;12.60;54.00;;;;;;4956829;29;20027;-87
2021/04/22 12:49:33;;;;;;;4.33;1.10;;;12.70;53.30;;;;;;4956162;29;20027;-87